sensor_id;sensor_type;location;lat;lon;timestamp;temperature;humidity
5802;DHT22;2927;49.366;8.530;2023-08-21T00:01:13;23.90;99.90
5802;DHT22;2927;49.366;8.530;2023-08-21T00:03:38;23.90;99.90
5802;DHT22;2927;49.366;8.530;2023-08-21T00:06:04;23.80;99.90
5802;DHT22;2927;49.366;8.530;2023-08-21T00:08:29;23.80;1.00
5802;DHT22;2927;49.366;8.530;2023-08-21T00:10:55;23.80;1.00
5802;DHT22;2927;49.366;8.530;2023-08-21T00:13:21;23.70;1.00
5802;DHT22;2927;49.366;8.530;2023-08-21T00:15:46;23.70;1.00
5802;DHT22;2927;49.366;8.530;2023-08-21T00:18:12;23.60;1.00
5802;DHT22;2927;49.366;8.530;2023-08-21T00:20:38;23.60;1.00
5802;DHT22;2927;49.366;8.530;2023-08-21T00:23:04;23.60;99.90
5802;DHT22;2927;49.366;8.530;2023-08-21T00:25:30;23.60;99.90
5802;DHT22;2927;49.366;8.530;2023-08-21T00:27:55;23.60;1.00
5802;DHT22;2927;49.366;8.530;2023-08-21T00:30:21;23.50;1.00
5802;DHT22;2927;49.366;8.530;2023-08-21T00:32:46;23.50;99.90
5802;DHT22;2927;49.366;8.530;2023-08-21T00:35:12;23.50;1.00
5802;DHT22;2927;49.366;8.530;2023-08-21T00:37:37;23.50;1.00
5802;DHT22;2927;49.366;8.530;2023-08-21T00:40:03;23.50;1.00
5802;DHT22;2927;49.366;8.530;2023-08-21T00:42:29;23.50;35.80
5802;DHT22;2927;49.366;8.530;2023-08-21T00:44:54;23.40;1.00
5802;DHT22;2927;49.366;8.530;2023-08-21T00:47:20;23.30;99.90
5802;DHT22;2927;49.366;8.530;2023-08-21T00:49:46;23.30;1.00
5802;DHT22;2927;49.366;8.530;2023-08-21T00:52:12;23.30;99.90
5802;DHT22;2927;49.366;8.530;2023-08-21T00:54:39;23.20;99.90
5802;DHT22;2927;49.366;8.530;2023-08-21T00:57:05;23.20;99.90
5802;DHT22;2927;49.366;8.530;2023-08-21T00:59:31;23.20;1.00
5802;DHT22;2927;49.366;8.530;2023-08-21T01:01:57;23.10;1.00
5802;DHT22;2927;49.366;8.530;2023-08-21T01:04:22;23.10;1.00
5802;DHT22;2927;49.366;8.530;2023-08-21T01:06:49;23.10;1.00
5802;DHT22;2927;49.366;8.530;2023-08-21T01:09:29;23.20;1.00
5802;DHT22;2927;49.366;8.530;2023-08-21T01:12:22;23.20;1.00
5802;DHT22;2927;49.366;8.530;2023-08-21T01:14:59;23.10;1.00
5802;DHT22;2927;49.366;8.530;2023-08-21T01:17:26;23.10;1.00
5802;DHT22;2927;49.366;8.530;2023-08-21T01:19:54;23.10;1.00
5802;DHT22;2927;49.366;8.530;2023-08-21T01:22:24;23.10;1.00
5802;DHT22;2927;49.366;8.530;2023-08-21T01:24:50;23.00;1.00
5802;DHT22;2927;49.366;8.530;2023-08-21T01:27:15;22.90;1.00
5802;DHT22;2927;49.366;8.530;2023-08-21T01:29:42;22.90;1.00
5802;DHT22;2927;49.366;8.530;2023-08-21T01:32:24;22.90;1.00
5802;DHT22;2927;49.366;8.530;2023-08-21T01:34:55;22.90;1.00
5802;DHT22;2927;49.366;8.530;2023-08-21T01:37:21;22.90;1.00
5802;DHT22;2927;49.366;8.530;2023-08-21T01:39:47;22.90;1.00
5802;DHT22;2927;49.366;8.530;2023-08-21T01:42:13;22.90;1.00
5802;DHT22;2927;49.366;8.530;2023-08-21T01:44:38;22.90;1.00
5802;DHT22;2927;49.366;8.530;2023-08-21T01:47:04;22.90;1.00
5802;DHT22;2927;49.366;8.530;2023-08-21T01:49:29;22.90;1.00
5802;DHT22;2927;49.366;8.530;2023-08-21T01:51:55;22.90;1.00
5802;DHT22;2927;49.366;8.530;2023-08-21T01:54:20;22.90;1.00
5802;DHT22;2927;49.366;8.530;2023-08-21T01:56:46;22.80;1.00
5802;DHT22;2927;49.366;8.530;2023-08-21T01:59:11;22.80;1.00
5802;DHT22;2927;49.366;8.530;2023-08-21T02:01:37;22.70;1.00
5802;DHT22;2927;49.366;8.530;2023-08-21T02:04:03;22.70;1.00
5802;DHT22;2927;49.366;8.530;2023-08-21T02:06:28;22.60;59.30
5802;DHT22;2927;49.366;8.530;2023-08-21T02:08:54;22.60;59.90
5802;DHT22;2927;49.366;8.530;2023-08-21T02:11:19;22.60;97.90
5802;DHT22;2927;49.366;8.530;2023-08-21T02:13:45;22.60;73.10
5802;DHT22;2927;49.366;8.530;2023-08-21T02:16:11;22.50;42.80
5802;DHT22;2927;49.366;8.530;2023-08-21T02:18:36;22.40;91.20
5802;DHT22;2927;49.366;8.530;2023-08-21T02:21:02;22.40;82.60
5802;DHT22;2927;49.366;8.530;2023-08-21T02:23:27;22.40;69.00
5802;DHT22;2927;49.366;8.530;2023-08-21T02:25:54;22.30;99.90
5802;DHT22;2927;49.366;8.530;2023-08-21T02:28:20;22.30;87.10
5802;DHT22;2927;49.366;8.530;2023-08-21T02:30:45;22.30;99.90
5802;DHT22;2927;49.366;8.530;2023-08-21T02:33:11;22.30;99.90
5802;DHT22;2927;49.366;8.530;2023-08-21T02:35:36;22.30;99.90
5802;DHT22;2927;49.366;8.530;2023-08-21T02:38:02;22.30;99.90
5802;DHT22;2927;49.366;8.530;2023-08-21T02:40:28;22.20;99.90
5802;DHT22;2927;49.366;8.530;2023-08-21T02:42:53;22.20;99.90
5802;DHT22;2927;49.366;8.530;2023-08-21T02:45:19;22.20;99.90
5802;DHT22;2927;49.366;8.530;2023-08-21T02:47:45;22.20;99.90
5802;DHT22;2927;49.366;8.530;2023-08-21T02:50:11;22.20;99.90
5802;DHT22;2927;49.366;8.530;2023-08-21T02:52:37;22.20;99.90
5802;DHT22;2927;49.366;8.530;2023-08-21T02:55:03;22.20;99.90
5802;DHT22;2927;49.366;8.530;2023-08-21T02:57:30;22.10;99.90
5802;DHT22;2927;49.366;8.530;2023-08-21T02:59:56;22.10;99.90
5802;DHT22;2927;49.366;8.530;2023-08-21T03:02:23;22.10;99.90
5802;DHT22;2927;49.366;8.530;2023-08-21T03:04:49;22.10;99.90
5802;DHT22;2927;49.366;8.530;2023-08-21T03:07:15;22.10;99.90
5802;DHT22;2927;49.366;8.530;2023-08-21T03:09:41;22.00;99.90
5802;DHT22;2927;49.366;8.530;2023-08-21T03:12:07;22.00;99.90
5802;DHT22;2927;49.366;8.530;2023-08-21T03:14:33;22.00;99.90
5802;DHT22;2927;49.366;8.530;2023-08-21T03:16:59;21.90;99.90
5802;DHT22;2927;49.366;8.530;2023-08-21T03:19:24;21.90;99.90
5802;DHT22;2927;49.366;8.530;2023-08-21T03:21:50;21.90;99.90
5802;DHT22;2927;49.366;8.530;2023-08-21T03:24:16;21.90;99.90
5802;DHT22;2927;49.366;8.530;2023-08-21T03:26:42;21.80;99.90
5802;DHT22;2927;49.366;8.530;2023-08-21T03:29:08;21.80;99.90
5802;DHT22;2927;49.366;8.530;2023-08-21T03:31:33;21.80;99.90
5802;DHT22;2927;49.366;8.530;2023-08-21T03:33:59;21.80;99.90
5802;DHT22;2927;49.366;8.530;2023-08-21T03:36:25;21.70;99.90
5802;DHT22;2927;49.366;8.530;2023-08-21T03:38:57;21.80;99.90
5802;DHT22;2927;49.366;8.530;2023-08-21T03:41:23;21.70;99.90
5802;DHT22;2927;49.366;8.530;2023-08-21T03:43:48;21.70;99.90
5802;DHT22;2927;49.366;8.530;2023-08-21T03:46:14;21.70;99.90
5802;DHT22;2927;49.366;8.530;2023-08-21T03:48:39;21.70;99.90
5802;DHT22;2927;49.366;8.530;2023-08-21T03:51:05;21.70;99.90
5802;DHT22;2927;49.366;8.530;2023-08-21T03:53:30;21.60;99.90
5802;DHT22;2927;49.366;8.530;2023-08-21T03:55:56;21.60;99.90
5802;DHT22;2927;49.366;8.530;2023-08-21T03:58:21;21.50;99.90
5802;DHT22;2927;49.366;8.530;2023-08-21T04:00:47;21.60;99.90
5802;DHT22;2927;49.366;8.530;2023-08-21T04:03:12;21.60;99.90
5802;DHT22;2927;49.366;8.530;2023-08-21T04:05:38;21.60;99.90
5802;DHT22;2927;49.366;8.530;2023-08-21T04:08:04;21.50;99.90
5802;DHT22;2927;49.366;8.530;2023-08-21T04:10:29;21.50;99.90
5802;DHT22;2927;49.366;8.530;2023-08-21T04:12:55;21.50;99.90
5802;DHT22;2927;49.366;8.530;2023-08-21T04:15:20;21.50;99.90
5802;DHT22;2927;49.366;8.530;2023-08-21T04:17:46;21.50;99.90
5802;DHT22;2927;49.366;8.530;2023-08-21T04:20:12;21.50;99.90
5802;DHT22;2927;49.366;8.530;2023-08-21T04:22:37;21.60;99.90
5802;DHT22;2927;49.366;8.530;2023-08-21T04:25:03;21.60;99.90
5802;DHT22;2927;49.366;8.530;2023-08-21T04:27:28;21.60;99.90
5802;DHT22;2927;49.366;8.530;2023-08-21T04:29:54;21.70;99.90
5802;DHT22;2927;49.366;8.530;2023-08-21T04:32:19;21.50;99.90
5802;DHT22;2927;49.366;8.530;2023-08-21T04:34:45;21.50;99.90
5802;DHT22;2927;49.366;8.530;2023-08-21T04:37:11;21.50;99.90
5802;DHT22;2927;49.366;8.530;2023-08-21T04:39:36;21.60;99.90
5802;DHT22;2927;49.366;8.530;2023-08-21T04:42:02;21.60;99.90
5802;DHT22;2927;49.366;8.530;2023-08-21T04:44:28;21.60;99.90
5802;DHT22;2927;49.366;8.530;2023-08-21T04:46:55;21.70;99.90
5802;DHT22;2927;49.366;8.530;2023-08-21T04:49:21;21.80;99.90
5802;DHT22;2927;49.366;8.530;2023-08-21T04:51:46;21.80;99.90
5802;DHT22;2927;49.366;8.530;2023-08-21T04:54:12;21.80;99.90
5802;DHT22;2927;49.366;8.530;2023-08-21T04:56:37;21.80;99.90
5802;DHT22;2927;49.366;8.530;2023-08-21T04:59:03;21.80;99.90
5802;DHT22;2927;49.366;8.530;2023-08-21T05:01:28;21.80;99.90
5802;DHT22;2927;49.366;8.530;2023-08-21T05:03:54;21.90;99.90
5802;DHT22;2927;49.366;8.530;2023-08-21T05:06:20;22.00;99.90
5802;DHT22;2927;49.366;8.530;2023-08-21T05:08:46;22.10;99.90
5802;DHT22;2927;49.366;8.530;2023-08-21T05:11:11;22.10;99.90
5802;DHT22;2927;49.366;8.530;2023-08-21T05:13:37;22.10;99.90
5802;DHT22;2927;49.366;8.530;2023-08-21T05:16:02;22.20;99.90
5802;DHT22;2927;49.366;8.530;2023-08-21T05:18:28;22.30;99.90
5802;DHT22;2927;49.366;8.530;2023-08-21T05:20:55;22.40;99.90
5802;DHT22;2927;49.366;8.530;2023-08-21T05:23:21;22.50;99.90
5802;DHT22;2927;49.366;8.530;2023-08-21T05:25:48;22.60;99.90
5802;DHT22;2927;49.366;8.530;2023-08-21T05:28:14;22.70;99.90
5802;DHT22;2927;49.366;8.530;2023-08-21T05:30:40;22.70;99.90
5802;DHT22;2927;49.366;8.530;2023-08-21T05:33:06;22.80;99.90
5802;DHT22;2927;49.366;8.530;2023-08-21T05:35:35;22.90;99.90
5802;DHT22;2927;49.366;8.530;2023-08-21T05:38:03;22.90;99.90
5802;DHT22;2927;49.366;8.530;2023-08-21T05:40:29;23.10;99.90
5802;DHT22;2927;49.366;8.530;2023-08-21T05:42:55;23.20;99.90
5802;DHT22;2927;49.366;8.530;2023-08-21T05:45:20;23.40;99.90
5802;DHT22;2927;49.366;8.530;2023-08-21T05:47:46;23.60;99.90
5802;DHT22;2927;49.366;8.530;2023-08-21T05:50:11;23.80;99.90
5802;DHT22;2927;49.366;8.530;2023-08-21T05:52:37;24.10;68.40
5802;DHT22;2927;49.366;8.530;2023-08-21T05:55:03;24.40;1.00
5802;DHT22;2927;49.366;8.530;2023-08-21T05:57:29;25.50;1.00
5802;DHT22;2927;49.366;8.530;2023-08-21T05:59:55;27.40;99.90
5802;DHT22;2927;49.366;8.530;2023-08-21T06:02:20;29.20;1.00
5802;DHT22;2927;49.366;8.530;2023-08-21T06:04:46;30.40;1.00
5802;DHT22;2927;49.366;8.530;2023-08-21T06:07:11;30.70;99.90
5802;DHT22;2927;49.366;8.530;2023-08-21T06:09:37;31.60;99.90
5802;DHT22;2927;49.366;8.530;2023-08-21T06:12:03;31.70;99.90
5802;DHT22;2927;49.366;8.530;2023-08-21T06:14:29;31.90;99.90
5802;DHT22;2927;49.366;8.530;2023-08-21T06:17:00;32.30;99.90
5802;DHT22;2927;49.366;8.530;2023-08-21T06:19:27;32.30;95.00
5802;DHT22;2927;49.366;8.530;2023-08-21T06:21:52;32.80;38.60
5802;DHT22;2927;49.366;8.530;2023-08-21T06:24:18;33.00;12.80
5802;DHT22;2927;49.366;8.530;2023-08-21T06:26:43;33.20;1.00
5802;DHT22;2927;49.366;8.530;2023-08-21T06:29:09;33.50;1.00
5802;DHT22;2927;49.366;8.530;2023-08-21T06:31:34;33.70;1.00
5802;DHT22;2927;49.366;8.530;2023-08-21T06:34:00;34.10;1.00
5802;DHT22;2927;49.366;8.530;2023-08-21T06:36:26;34.10;1.00
5802;DHT22;2927;49.366;8.530;2023-08-21T06:38:51;34.10;1.00
5802;DHT22;2927;49.366;8.530;2023-08-21T06:41:17;34.90;1.00
5802;DHT22;2927;49.366;8.530;2023-08-21T06:43:42;34.60;1.00
5802;DHT22;2927;49.366;8.530;2023-08-21T06:46:08;34.90;1.00
5802;DHT22;2927;49.366;8.530;2023-08-21T06:48:37;35.30;1.00
5802;DHT22;2927;49.366;8.530;2023-08-21T06:51:02;35.40;1.00
5802;DHT22;2927;49.366;8.530;2023-08-21T06:53:28;35.80;1.00
5802;DHT22;2927;49.366;8.530;2023-08-21T06:55:54;35.70;1.00
5802;DHT22;2927;49.366;8.530;2023-08-21T06:58:19;35.80;1.00
5802;DHT22;2927;49.366;8.530;2023-08-21T07:00:45;36.10;1.00
5802;DHT22;2927;49.366;8.530;2023-08-21T07:03:10;36.50;1.00
5802;DHT22;2927;49.366;8.530;2023-08-21T07:05:37;36.50;1.00
5802;DHT22;2927;49.366;8.530;2023-08-21T07:08:02;36.60;1.00
5802;DHT22;2927;49.366;8.530;2023-08-21T07:10:29;37.10;1.00
5802;DHT22;2927;49.366;8.530;2023-08-21T07:12:55;37.30;1.00
5802;DHT22;2927;49.366;8.530;2023-08-21T07:15:21;38.00;1.00
5802;DHT22;2927;49.366;8.530;2023-08-21T07:17:47;38.00;1.00
5802;DHT22;2927;49.366;8.530;2023-08-21T07:20:12;37.90;1.00
5802;DHT22;2927;49.366;8.530;2023-08-21T07:22:38;38.20;1.00
5802;DHT22;2927;49.366;8.530;2023-08-21T07:25:04;38.30;1.00
5802;DHT22;2927;49.366;8.530;2023-08-21T07:27:33;38.10;1.00
5802;DHT22;2927;49.366;8.530;2023-08-21T07:29:59;38.40;1.00
5802;DHT22;2927;49.366;8.530;2023-08-21T07:32:24;38.50;1.00
5802;DHT22;2927;49.366;8.530;2023-08-21T07:34:53;38.70;1.00
5802;DHT22;2927;49.366;8.530;2023-08-21T07:37:20;39.10;1.00
5802;DHT22;2927;49.366;8.530;2023-08-21T07:39:45;38.90;1.00
5802;DHT22;2927;49.366;8.530;2023-08-21T07:42:11;39.20;1.00
5802;DHT22;2927;49.366;8.530;2023-08-21T07:44:39;39.40;1.00
5802;DHT22;2927;49.366;8.530;2023-08-21T07:47:05;40.00;1.00
5802;DHT22;2927;49.366;8.530;2023-08-21T07:49:31;39.90;1.00
5802;DHT22;2927;49.366;8.530;2023-08-21T07:51:57;39.40;1.00
5802;DHT22;2927;49.366;8.530;2023-08-21T07:54:23;39.90;1.00
5802;DHT22;2927;49.366;8.530;2023-08-21T07:56:49;40.10;1.00
5802;DHT22;2927;49.366;8.530;2023-08-21T07:59:15;40.20;1.00
5802;DHT22;2927;49.366;8.530;2023-08-21T08:01:40;39.90;1.00
5802;DHT22;2927;49.366;8.530;2023-08-21T08:04:06;39.80;1.00
5802;DHT22;2927;49.366;8.530;2023-08-21T08:06:32;40.10;1.00
5802;DHT22;2927;49.366;8.530;2023-08-21T08:08:58;40.50;1.00
5802;DHT22;2927;49.366;8.530;2023-08-21T08:11:23;40.60;1.00
5802;DHT22;2927;49.366;8.530;2023-08-21T08:13:49;40.80;1.00
5802;DHT22;2927;49.366;8.530;2023-08-21T08:16:15;40.60;1.00
5802;DHT22;2927;49.366;8.530;2023-08-21T08:18:42;40.70;1.00
5802;DHT22;2927;49.366;8.530;2023-08-21T08:21:07;41.20;1.00
5802;DHT22;2927;49.366;8.530;2023-08-21T08:23:33;40.90;1.00
5802;DHT22;2927;49.366;8.530;2023-08-21T08:25:58;40.80;1.00
5802;DHT22;2927;49.366;8.530;2023-08-21T08:28:24;41.00;1.00
5802;DHT22;2927;49.366;8.530;2023-08-21T08:30:50;41.10;1.00
5802;DHT22;2927;49.366;8.530;2023-08-21T08:33:15;41.00;1.00
5802;DHT22;2927;49.366;8.530;2023-08-21T08:35:41;40.90;1.00
5802;DHT22;2927;49.366;8.530;2023-08-21T08:38:06;41.20;1.00
5802;DHT22;2927;49.366;8.530;2023-08-21T08:40:33;40.90;1.00
5802;DHT22;2927;49.366;8.530;2023-08-21T08:42:59;40.90;1.00
5802;DHT22;2927;49.366;8.530;2023-08-21T08:45:29;41.10;1.00
5802;DHT22;2927;49.366;8.530;2023-08-21T08:48:01;41.10;1.00
5802;DHT22;2927;49.366;8.530;2023-08-21T08:50:30;41.00;1.00
5802;DHT22;2927;49.366;8.530;2023-08-21T08:52:57;41.20;1.00
5802;DHT22;2927;49.366;8.530;2023-08-21T08:55:25;41.50;1.00
5802;DHT22;2927;49.366;8.530;2023-08-21T08:57:52;41.90;1.00
5802;DHT22;2927;49.366;8.530;2023-08-21T09:00:17;42.00;1.00
5802;DHT22;2927;49.366;8.530;2023-08-21T09:02:43;42.00;1.00
5802;DHT22;2927;49.366;8.530;2023-08-21T09:05:08;42.40;1.00
5802;DHT22;2927;49.366;8.530;2023-08-21T09:07:35;42.60;1.00
5802;DHT22;2927;49.366;8.530;2023-08-21T09:10:02;42.40;1.00
5802;DHT22;2927;49.366;8.530;2023-08-21T09:12:31;42.40;1.00
5802;DHT22;2927;49.366;8.530;2023-08-21T09:14:59;41.80;1.00
5802;DHT22;2927;49.366;8.530;2023-08-21T09:17:26;41.30;1.00
5802;DHT22;2927;49.366;8.530;2023-08-21T09:19:51;41.20;1.00
5802;DHT22;2927;49.366;8.530;2023-08-21T09:22:18;40.30;1.00
5802;DHT22;2927;49.366;8.530;2023-08-21T09:25:10;41.10;1.00
5802;DHT22;2927;49.366;8.530;2023-08-21T09:27:38;42.40;1.00
5802;DHT22;2927;49.366;8.530;2023-08-21T09:30:10;42.90;1.00
5802;DHT22;2927;49.366;8.530;2023-08-21T09:32:57;42.80;1.00
5802;DHT22;2927;49.366;8.530;2023-08-21T09:35:25;42.40;1.00
5802;DHT22;2927;49.366;8.530;2023-08-21T09:37:51;43.20;1.00
5802;DHT22;2927;49.366;8.530;2023-08-21T09:40:21;43.10;1.00
5802;DHT22;2927;49.366;8.530;2023-08-21T09:43:01;43.50;1.00
5802;DHT22;2927;49.366;8.530;2023-08-21T09:45:28;42.70;1.00
5802;DHT22;2927;49.366;8.530;2023-08-21T09:47:55;42.80;1.00
5802;DHT22;2927;49.366;8.530;2023-08-21T09:50:24;42.90;1.00
5802;DHT22;2927;49.366;8.530;2023-08-21T09:52:50;42.30;1.00
5802;DHT22;2927;49.366;8.530;2023-08-21T09:55:17;42.10;1.00
5802;DHT22;2927;49.366;8.530;2023-08-21T09:57:43;41.10;1.00
5802;DHT22;2927;49.366;8.530;2023-08-21T10:00:11;42.20;1.00
5802;DHT22;2927;49.366;8.530;2023-08-21T10:02:52;42.90;1.00
5802;DHT22;2927;49.366;8.530;2023-08-21T10:05:19;43.00;1.00
5802;DHT22;2927;49.366;8.530;2023-08-21T10:07:49;42.80;1.00
5802;DHT22;2927;49.366;8.530;2023-08-21T10:10:16;43.20;1.00
5802;DHT22;2927;49.366;8.530;2023-08-21T10:12:41;42.50;1.00
5802;DHT22;2927;49.366;8.530;2023-08-21T10:15:07;41.90;1.00
5802;DHT22;2927;49.366;8.530;2023-08-21T10:17:35;40.70;1.00
5802;DHT22;2927;49.366;8.530;2023-08-21T10:20:05;39.70;1.00
5802;DHT22;2927;49.366;8.530;2023-08-21T10:22:45;38.90;1.00
5802;DHT22;2927;49.366;8.530;2023-08-21T10:25:16;38.30;1.00
5802;DHT22;2927;49.366;8.530;2023-08-21T10:27:42;38.30;1.00
5802;DHT22;2927;49.366;8.530;2023-08-21T10:30:16;38.20;1.00
5802;DHT22;2927;49.366;8.530;2023-08-21T10:32:48;37.70;1.00
5802;DHT22;2927;49.366;8.530;2023-08-21T10:35:16;37.20;1.00
5802;DHT22;2927;49.366;8.530;2023-08-21T10:38:05;36.70;1.00
5802;DHT22;2927;49.366;8.530;2023-08-21T10:40:31;36.70;1.00
5802;DHT22;2927;49.366;8.530;2023-08-21T10:42:58;36.30;1.00
5802;DHT22;2927;49.366;8.530;2023-08-21T10:45:24;36.60;1.00
5802;DHT22;2927;49.366;8.530;2023-08-21T10:47:50;36.80;1.00
5802;DHT22;2927;49.366;8.530;2023-08-21T10:50:16;36.90;1.00
5802;DHT22;2927;49.366;8.530;2023-08-21T10:52:43;36.30;1.00
5802;DHT22;2927;49.366;8.530;2023-08-21T10:55:13;36.30;1.00
5802;DHT22;2927;49.366;8.530;2023-08-21T10:57:39;36.10;1.00
5802;DHT22;2927;49.366;8.530;2023-08-21T11:00:10;36.00;1.00
5802;DHT22;2927;49.366;8.530;2023-08-21T11:02:37;35.90;1.00
5802;DHT22;2927;49.366;8.530;2023-08-21T11:05:04;36.00;1.00
5802;DHT22;2927;49.366;8.530;2023-08-21T11:07:30;35.80;1.00
5802;DHT22;2927;49.366;8.530;2023-08-21T11:09:56;35.90;1.00
5802;DHT22;2927;49.366;8.530;2023-08-21T11:12:23;35.40;1.00
5802;DHT22;2927;49.366;8.530;2023-08-21T11:14:50;35.50;1.00
5802;DHT22;2927;49.366;8.530;2023-08-21T11:17:15;35.00;1.00
5802;DHT22;2927;49.366;8.530;2023-08-21T11:19:42;34.80;1.00
5802;DHT22;2927;49.366;8.530;2023-08-21T11:22:08;34.90;1.00
5802;DHT22;2927;49.366;8.530;2023-08-21T11:27:03;34.40;1.00
5802;DHT22;2927;49.366;8.530;2023-08-21T11:29:36;34.20;1.00
5802;DHT22;2927;49.366;8.530;2023-08-21T11:32:02;34.10;1.00
5802;DHT22;2927;49.366;8.530;2023-08-21T11:34:28;34.40;1.00
5802;DHT22;2927;49.366;8.530;2023-08-21T11:36:54;34.80;1.00
5802;DHT22;2927;49.366;8.530;2023-08-21T11:39:20;34.80;1.00
5802;DHT22;2927;49.366;8.530;2023-08-21T11:41:56;34.60;1.00
5802;DHT22;2927;49.366;8.530;2023-08-21T11:44:22;34.60;1.00
5802;DHT22;2927;49.366;8.530;2023-08-21T11:46:50;34.60;1.00
5802;DHT22;2927;49.366;8.530;2023-08-21T11:49:16;34.70;1.00
5802;DHT22;2927;49.366;8.530;2023-08-21T11:51:45;34.60;1.00
5802;DHT22;2927;49.366;8.530;2023-08-21T11:54:11;34.50;1.00
5802;DHT22;2927;49.366;8.530;2023-08-21T11:56:38;34.20;1.00
5802;DHT22;2927;49.366;8.530;2023-08-21T11:59:04;34.40;1.00
5802;DHT22;2927;49.366;8.530;2023-08-21T12:01:33;34.40;1.00
5802;DHT22;2927;49.366;8.530;2023-08-21T12:03:59;34.10;1.00
5802;DHT22;2927;49.366;8.530;2023-08-21T12:06:25;33.80;1.00
5802;DHT22;2927;49.366;8.530;2023-08-21T12:08:51;33.80;1.00
5802;DHT22;2927;49.366;8.530;2023-08-21T12:11:17;33.70;1.00
5802;DHT22;2927;49.366;8.530;2023-08-21T12:13:43;33.50;1.00
5802;DHT22;2927;49.366;8.530;2023-08-21T12:16:08;33.80;1.00
5802;DHT22;2927;49.366;8.530;2023-08-21T12:18:34;34.00;1.00
5802;DHT22;2927;49.366;8.530;2023-08-21T12:20:59;34.00;1.00
5802;DHT22;2927;49.366;8.530;2023-08-21T12:23:25;34.30;1.00
5802;DHT22;2927;49.366;8.530;2023-08-21T12:25:51;34.30;1.00
5802;DHT22;2927;49.366;8.530;2023-08-21T12:28:16;34.20;1.00
5802;DHT22;2927;49.366;8.530;2023-08-21T12:30:42;34.20;1.00
5802;DHT22;2927;49.366;8.530;2023-08-21T12:33:07;34.20;1.00
5802;DHT22;2927;49.366;8.530;2023-08-21T12:35:33;34.10;1.00
5802;DHT22;2927;49.366;8.530;2023-08-21T12:37:58;34.30;1.00
5802;DHT22;2927;49.366;8.530;2023-08-21T12:40:30;34.10;1.00
5802;DHT22;2927;49.366;8.530;2023-08-21T12:42:55;34.00;1.00
5802;DHT22;2927;49.366;8.530;2023-08-21T12:45:21;33.80;1.00
5802;DHT22;2927;49.366;8.530;2023-08-21T12:47:46;33.80;1.00
5802;DHT22;2927;49.366;8.530;2023-08-21T12:50:12;33.90;1.00
5802;DHT22;2927;49.366;8.530;2023-08-21T12:52:38;34.10;1.00
5802;DHT22;2927;49.366;8.530;2023-08-21T12:55:04;34.10;1.00
5802;DHT22;2927;49.366;8.530;2023-08-21T12:57:31;34.20;1.00
5802;DHT22;2927;49.366;8.530;2023-08-21T12:59:57;34.20;1.00
5802;DHT22;2927;49.366;8.530;2023-08-21T13:02:22;33.90;1.00
5802;DHT22;2927;49.366;8.530;2023-08-21T13:04:49;33.60;1.00
5802;DHT22;2927;49.366;8.530;2023-08-21T13:07:14;33.50;1.00
5802;DHT22;2927;49.366;8.530;2023-08-21T13:09:40;33.70;1.00
5802;DHT22;2927;49.366;8.530;2023-08-21T13:12:05;34.00;1.00
5802;DHT22;2927;49.366;8.530;2023-08-21T13:14:31;34.20;1.00
5802;DHT22;2927;49.366;8.530;2023-08-21T13:16:56;34.40;1.00
5802;DHT22;2927;49.366;8.530;2023-08-21T13:19:22;34.20;1.00
5802;DHT22;2927;49.366;8.530;2023-08-21T13:21:47;34.00;1.00
5802;DHT22;2927;49.366;8.530;2023-08-21T13:24:13;34.20;1.00
5802;DHT22;2927;49.366;8.530;2023-08-21T13:26:38;34.20;1.00
5802;DHT22;2927;49.366;8.530;2023-08-21T13:29:04;34.10;1.00
5802;DHT22;2927;49.366;8.530;2023-08-21T13:31:32;34.40;1.00
5802;DHT22;2927;49.366;8.530;2023-08-21T13:33:58;34.60;1.00
5802;DHT22;2927;49.366;8.530;2023-08-21T13:36:23;34.50;1.00
5802;DHT22;2927;49.366;8.530;2023-08-21T13:38:49;34.50;1.00
5802;DHT22;2927;49.366;8.530;2023-08-21T13:41:14;34.40;1.00
5802;DHT22;2927;49.366;8.530;2023-08-21T13:43:40;34.40;1.00
5802;DHT22;2927;49.366;8.530;2023-08-21T13:46:06;34.40;1.00
5802;DHT22;2927;49.366;8.530;2023-08-21T13:48:32;34.40;1.00
5802;DHT22;2927;49.366;8.530;2023-08-21T13:50:57;34.50;1.00
5802;DHT22;2927;49.366;8.530;2023-08-21T13:53:23;34.50;1.00
5802;DHT22;2927;49.366;8.530;2023-08-21T13:55:52;34.50;1.00
5802;DHT22;2927;49.366;8.530;2023-08-21T13:58:17;34.40;1.00
5802;DHT22;2927;49.366;8.530;2023-08-21T14:00:43;34.40;1.00
5802;DHT22;2927;49.366;8.530;2023-08-21T14:03:09;34.40;1.00
5802;DHT22;2927;49.366;8.530;2023-08-21T14:05:35;34.30;1.00
5802;DHT22;2927;49.366;8.530;2023-08-21T14:08:01;34.40;1.00
5802;DHT22;2927;49.366;8.530;2023-08-21T14:10:26;34.50;1.00
5802;DHT22;2927;49.366;8.530;2023-08-21T14:12:52;34.60;1.00
5802;DHT22;2927;49.366;8.530;2023-08-21T14:15:18;34.60;1.00
5802;DHT22;2927;49.366;8.530;2023-08-21T14:17:44;34.30;1.00
5802;DHT22;2927;49.366;8.530;2023-08-21T14:20:10;34.20;1.00
5802;DHT22;2927;49.366;8.530;2023-08-21T14:22:39;34.30;1.00
5802;DHT22;2927;49.366;8.530;2023-08-21T14:25:05;34.40;1.00
5802;DHT22;2927;49.366;8.530;2023-08-21T14:27:32;34.50;1.00
5802;DHT22;2927;49.366;8.530;2023-08-21T14:29:58;34.50;1.00
5802;DHT22;2927;49.366;8.530;2023-08-21T14:32:23;34.50;1.00
5802;DHT22;2927;49.366;8.530;2023-08-21T14:34:49;34.40;1.00
5802;DHT22;2927;49.366;8.530;2023-08-21T14:37:14;34.30;1.00
5802;DHT22;2927;49.366;8.530;2023-08-21T14:39:42;34.30;1.00
5802;DHT22;2927;49.366;8.530;2023-08-21T14:42:08;34.20;1.00
5802;DHT22;2927;49.366;8.530;2023-08-21T14:44:34;34.40;1.00
5802;DHT22;2927;49.366;8.530;2023-08-21T14:46:59;34.40;1.00
5802;DHT22;2927;49.366;8.530;2023-08-21T14:49:25;34.30;1.00
5802;DHT22;2927;49.366;8.530;2023-08-21T14:51:51;34.40;1.00
5802;DHT22;2927;49.366;8.530;2023-08-21T14:54:17;34.20;1.00
5802;DHT22;2927;49.366;8.530;2023-08-21T14:56:43;34.00;1.00
5802;DHT22;2927;49.366;8.530;2023-08-21T14:59:08;34.00;1.00
5802;DHT22;2927;49.366;8.530;2023-08-21T15:01:38;34.00;1.00
5802;DHT22;2927;49.366;8.530;2023-08-21T15:04:04;34.10;1.00
5802;DHT22;2927;49.366;8.530;2023-08-21T15:06:29;34.30;1.00
5802;DHT22;2927;49.366;8.530;2023-08-21T15:08:55;34.40;1.00
5802;DHT22;2927;49.366;8.530;2023-08-21T15:11:20;34.40;1.00
5802;DHT22;2927;49.366;8.530;2023-08-21T15:13:46;34.50;1.00
5802;DHT22;2927;49.366;8.530;2023-08-21T15:16:11;34.50;1.00
5802;DHT22;2927;49.366;8.530;2023-08-21T15:18:37;34.50;1.00
5802;DHT22;2927;49.366;8.530;2023-08-21T15:21:03;34.40;1.00
5802;DHT22;2927;49.366;8.530;2023-08-21T15:23:28;34.40;1.00
5802;DHT22;2927;49.366;8.530;2023-08-21T15:25:54;34.40;1.00
5802;DHT22;2927;49.366;8.530;2023-08-21T15:28:19;34.40;1.00
5802;DHT22;2927;49.366;8.530;2023-08-21T15:30:45;34.30;1.00
5802;DHT22;2927;49.366;8.530;2023-08-21T15:33:12;34.40;1.00
5802;DHT22;2927;49.366;8.530;2023-08-21T15:35:37;34.40;1.00
5802;DHT22;2927;49.366;8.530;2023-08-21T15:38:03;34.50;1.00
5802;DHT22;2927;49.366;8.530;2023-08-21T15:40:29;34.50;1.00
5802;DHT22;2927;49.366;8.530;2023-08-21T15:42:55;34.50;1.00
5802;DHT22;2927;49.366;8.530;2023-08-21T15:45:21;34.40;1.00
5802;DHT22;2927;49.366;8.530;2023-08-21T15:47:48;34.30;1.00
5802;DHT22;2927;49.366;8.530;2023-08-21T15:50:14;34.30;1.00
5802;DHT22;2927;49.366;8.530;2023-08-21T15:52:40;34.20;1.00
5802;DHT22;2927;49.366;8.530;2023-08-21T15:55:06;34.10;1.00
5802;DHT22;2927;49.366;8.530;2023-08-21T15:57:32;34.20;1.00
5802;DHT22;2927;49.366;8.530;2023-08-21T15:59:58;34.30;1.00
5802;DHT22;2927;49.366;8.530;2023-08-21T16:02:23;34.30;1.00
5802;DHT22;2927;49.366;8.530;2023-08-21T16:04:49;34.30;1.00
5802;DHT22;2927;49.366;8.530;2023-08-21T16:07:14;34.30;1.00
5802;DHT22;2927;49.366;8.530;2023-08-21T16:09:40;34.20;1.00